Time;durP1;ratioP1;P1;durP2;ratioP2;P2;SDS_P1;SDS_P2;PMS_P1;PMS_P2;Temp;Humidity;BMP_temperature;BMP_pressure;BME280_temperature;BME280_humidity;BME280_pressure;Samples;Min_cycle;Max_cycle;Signal;HPM_P1;HPM_P2
2019/09/06 00:01:24;;;;;;;3.1;2.2;;;;;;;13.05;81.66309;967.1025;;;;
2019/09/06 00:03:49;;;;;;;3.4;2.1;;;;;;;12.9;83.09375;967.1116;;;;
2019/09/06 00:06:14;;;;;;;3.5;2.1;;;;;;;12.89;83.19434;967.1536;;;;
2019/09/06 00:08:39;;;;;;;3.3;2.1;;;;;;;12.87;80.8418;967.1469;;;;
2019/09/06 00:11:04;;;;;;;3.5;2.1;;;;;;;12.76;82.46484;967.1426;;;;
2019/09/06 00:13:29;;;;;;;4;2.3;;;;;;;12.79;83.34961;967.1359;;;;
2019/09/06 00:15:56;;;;;;;4.6;2.3;;;;;;;12.84;82.65332;967.0947;;;;
2019/09/06 00:18:21;;;;;;;4;2.1;;;;;;;12.81;82.47363;967.0236;;;;
2019/09/06 00:20:46;;;;;;;3.3;2.2;;;;;;;12.89;82.25684;967.0018;;;;
2019/09/06 00:23:11;;;;;;;3.6;2;;;;;;;12.91;81.73047;966.9702;;;;
2019/09/06 00:25:37;;;;;;;4.9;2;;;;;;;12.9;81.16113;966.952;;;;
2019/09/06 00:28:02;;;;;;;3.5;2.1;;;;;;;12.95;81.40137;966.8898;;;;
2019/09/06 00:30:27;;;;;;;4.9;2.2;;;;;;;12.99;81.22266;966.949;;;;
2019/09/06 00:32:52;;;;;;;3;2;;;;;;;12.77;81.22852;967.0192;;;;
2019/09/06 00:35:18;;;;;;;3.9;2;;;;;;;12.74;81.81348;966.9871;;;;
2019/09/06 00:37:43;;;;;;;3.9;2.2;;;;;;;12.84;81.9248;966.9622;;;;
2019/09/06 00:40:08;;;;;;;3.9;2.2;;;;;;;12.91;81.98438;967.0045;;;;
2019/09/06 00:42:33;;;;;;;3.5;2;;;;;;;12.96;82.39844;966.9705;;;;
2019/09/06 00:44:58;;;;;;;3.3;2;;;;;;;12.94;82.92578;966.9634;;;;
2019/09/06 00:47:23;;;;;;;4.5;2.2;;;;;;;12.89;82.8125;967.0247;;;;
2019/09/06 00:49:48;;;;;;;3.8;2;;;;;;;12.94;83.05273;966.9749;;;;
2019/09/06 00:52:13;;;;;;;3;2;;;;;;;12.92;82.50684;966.9927;;;;
2019/09/06 00:54:39;;;;;;;3;1.8;;;;;;;12.98;81.6377;966.9486;;;;
2019/09/06 00:57:04;;;;;;;4.2;2;;;;;;;12.95;82.32715;966.9504;;;;
2019/09/06 00:59:29;;;;;;;4.4;2.1;;;;;;;12.93;83.05078;967.0181;;;;
2019/09/06 01:01:55;;;;;;;3;1.9;;;;;;;12.87;82.94629;966.9881;;;;
2019/09/06 01:04:20;;;;;;;4.5;2.3;;;;;;;12.9;82.9668;966.9226;;;;
2019/09/06 01:06:45;;;;;;;4.4;2.4;;;;;;;12.9;82.35156;966.8538;;;;
2019/09/06 01:09:10;;;;;;;3.3;2.1;;;;;;;12.87;81.95508;966.9088;;;;
2019/09/06 01:11:36;;;;;;;4;1.8;;;;;;;12.98;82.14844;966.8974;;;;
2019/09/06 01:14:01;;;;;;;4.7;1.9;;;;;;;13.08;80.96289;966.8388;;;;
2019/09/06 01:16:26;;;;;;;4;2.1;;;;;;;12.96;81.20605;966.8329;;;;
2019/09/06 01:18:51;;;;;;;2.4;1.8;;;;;;;13.03;80.67578;966.8541;;;;
2019/09/06 01:21:16;;;;;;;3;2;;;;;;;12.92;81.4873;966.7713;;;;
2019/09/06 01:23:42;;;;;;;3.1;1.9;;;;;;;12.84;81.5293;966.8254;;;;
2019/09/06 01:26:07;;;;;;;4.1;2.2;;;;;;;12.86;81.15332;966.8503;;;;
2019/09/06 01:28:32;;;;;;;3.8;2.2;;;;;;;12.78;81.55273;966.8265;;;;
2019/09/06 01:30:57;;;;;;;4.3;2.3;;;;;;;12.85;81.37109;966.9099;;;;
2019/09/06 01:33:22;;;;;;;3.8;2;;;;;;;12.88;81.74609;966.8697;;;;
2019/09/06 01:35:48;;;;;;;3.8;2.1;;;;;;;12.94;80.96973;966.9003;;;;
2019/09/06 01:38:13;;;;;;;3.2;1.9;;;;;;;12.89;81.05371;966.895;;;;
2019/09/06 01:40:38;;;;;;;2.8;1.9;;;;;;;12.91;80.51367;966.8547;;;;
2019/09/06 01:43:03;;;;;;;3.6;1.9;;;;;;;12.93;80.42578;966.7833;;;;
2019/09/06 01:45:28;;;;;;;4.3;2.1;;;;;;;12.7;80.86816;966.7887;;;;
2019/09/06 01:47:54;;;;;;;3.2;2;;;;;;;12.79;81.56738;966.8823;;;;
2019/09/06 01:50:20;;;;;;;4.3;2.1;;;;;;;12.87;81.55957;966.7501;;;;
2019/09/06 01:52:45;;;;;;;4.2;2;;;;;;;12.69;81.13281;966.8246;;;;
2019/09/06 01:55:11;;;;;;;4;2.1;;;;;;;12.69;82.05762;966.8042;;;;
2019/09/06 01:57:36;;;;;;;3.4;2;;;;;;;12.78;82.31641;966.7939;;;;
2019/09/06 02:00:01;;;;;;;4;2.1;;;;;;;12.76;82.03711;966.7729;;;;
2019/09/06 02:02:26;;;;;;;3.2;1.9;;;;;;;12.86;81.77734;966.7303;;;;
2019/09/06 02:04:51;;;;;;;4;2;;;;;;;12.73;82.87402;966.6994;;;;
2019/09/06 02:07:16;;;;;;;3;1.8;;;;;;;12.71;82.52441;966.6646;;;;
2019/09/06 02:09:41;;;;;;;3.6;2.4;;;;;;;12.78;82.54883;966.6442;;;;
2019/09/06 02:12:07;;;;;;;3.4;1.9;;;;;;;12.83;82.71973;966.601;;;;
2019/09/06 02:14:32;;;;;;;4.6;2.2;;;;;;;12.85;83.83594;966.5884;;;;
2019/09/06 02:16:57;;;;;;;4.1;2.2;;;;;;;12.88;83.30859;966.5891;;;;
2019/09/06 02:19:23;;;;;;;4.2;2.2;;;;;;;12.95;82.7207;966.5928;;;;
2019/09/06 02:21:48;;;;;;;2.5;2;;;;;;;12.88;84.54688;966.5931;;;;
2019/09/06 02:24:13;;;;;;;4.1;2.4;;;;;;;12.83;84.86035;966.5764;;;;
2019/09/06 02:26:38;;;;;;;3.5;2.5;;;;;;;12.77;85.23145;966.6458;;;;
2019/09/06 02:29:03;;;;;;;3.1;2.2;;;;;;;12.82;85.78516;966.5894;;;;
2019/09/06 02:31:28;;;;;;;3.9;2.4;;;;;;;12.75;85.41309;966.5994;;;;
2019/09/06 02:33:54;;;;;;;4.8;2.5;;;;;;;12.73;85.67578;966.6088;;;;
2019/09/06 02:36:19;;;;;;;3.7;2.7;;;;;;;12.66;88.72461;966.6513;;;;
2019/09/06 02:38:45;;;;;;;4.2;2.9;;;;;;;12.58;88.79004;966.6331;;;;
2019/09/06 02:41:10;;;;;;;5.7;3;;;;;;;12.68;90.10449;966.713;;;;
2019/09/06 02:43:35;;;;;;;4;3;;;;;;;12.68;88.71777;966.7514;;;;
2019/09/06 02:46:00;;;;;;;5.1;3.3;;;;;;;12.58;89.29688;966.7524;;;;
2019/09/06 02:48:26;;;;;;;6.6;3.5;;;;;;;;;;;;;
2019/09/06 02:50:51;;;;;;;6.4;3.5;;;;;;;;;;;;;
2019/09/06 02:53:16;;;;;;;6.7;3.6;;;;;;;;;;;;;
2019/09/06 02:55:41;;;;;;;5.6;3.7;;;;;;;;;;;;;
2019/09/06 02:58:06;;;;;;;5.1;3.4;;;;;;;;;;;;;
2019/09/06 03:00:31;;;;;;;6.9;3.5;;;;;;;;;;;;;
2019/09/06 03:02:56;;;;;;;5.5;3.3;;;;;;;;;;;;;
2019/09/06 03:05:21;;;;;;;5;3.4;;;;;;;;;;;;;
2019/09/06 03:07:46;;;;;;;5.1;3.4;;;;;;;;;;;;;
2019/09/06 03:10:11;;;;;;;5.1;3.4;;;;;;;;;;;;;
2019/09/06 03:12:36;;;;;;;5.4;3.6;;;;;;;;;;;;;
2019/09/06 03:15:02;;;;;;;5.4;3.6;;;;;;;;;;;;;
2019/09/06 03:17:27;;;;;;;5.8;3.8;;;;;;;;;;;;;
2019/09/06 03:19:52;;;;;;;5.3;3.8;;;;;;;;;;;;;
2019/09/06 03:22:17;;;;;;;7.6;4.3;;;;;;;;;;;;;
2019/09/06 03:24:42;;;;;;;6.3;3.9;;;;;;;;;;;;;
2019/09/06 03:27:07;;;;;;;5.6;3.9;;;;;;;;;;;;;
2019/09/06 03:29:32;;;;;;;6.6;3.9;;;;;;;;;;;;;
2019/09/06 03:31:58;;;;;;;4.9;3.8;;;;;;;;;;;;;
2019/09/06 03:34:25;;;;;;;7.3;4.4;;;;;;;;;;;;;
2019/09/06 03:36:50;;;;;;;5.8;4.1;;;;;;;;;;;;;
2019/09/06 03:39:15;;;;;;;6.1;4.7;;;;;;;;;;;;;
2019/09/06 03:41:40;;;;;;;6.3;4.2;;;;;;;;;;;;;
2019/09/06 03:44:05;;;;;;;6.1;4.8;;;;;;;;;;;;;
2019/09/06 03:46:31;;;;;;;6.8;4.9;;;;;;;;;;;;;
2019/09/06 03:48:56;;;;;;;6.7;4.9;;;;;;;;;;;;;
2019/09/06 03:51:21;;;;;;;6.8;5.4;;;;;;;;;;;;;
2019/09/06 03:53:46;;;;;;;7.2;5.5;;;;;;;;;;;;;
2019/09/06 03:56:11;;;;;;;6.7;5.3;;;;;;;;;;;;;
2019/09/06 03:58:37;;;;;;;6.7;4.8;;;;;;;;;;;;;
2019/09/06 04:02:27;;;;;;;8.5;6.4;;;;;;;12.69;91.00977;966.3625;;;;
2019/09/06 04:04:52;;;;;;;9.6;6.3;;;;;;;12.74;90.62793;966.3594;;;;
2019/09/06 04:07:17;;;;;;;8.5;6.5;;;;;;;12.87;90.99902;966.3549;;;;
2019/09/06 04:09:42;;;;;;;9.3;7.5;;;;;;;12.77;91.17676;966.3674;;;;
2019/09/06 04:12:07;;;;;;;10.3;7.3;;;;;;;12.73;91.49316;966.4288;;;;
2019/09/06 04:15:22;;;;;;;10.3;7.6;;;;;;;12.68;91.55176;966.3911;;;;
2019/09/06 04:17:47;;;;;;;9.4;7.1;;;;;;;12.63;90.69824;966.3834;;;;
2019/09/06 04:20:12;;;;;;;10.4;6.8;;;;;;;12.78;89.78906;966.4414;;;;
2019/09/06 04:22:37;;;;;;;7.8;6.7;;;;;;;12.73;90.55469;966.4476;;;;
2019/09/06 04:25:02;;;;;;;11.2;7.2;;;;;;;12.65;91.17383;966.4211;;;;
2019/09/06 04:27:27;;;;;;;9.1;7.6;;;;;;;12.6;90.27441;966.3042;;;;
2019/09/06 04:29:52;;;;;;;10;7.1;;;;;;;12.47;90.43164;966.3967;;;;
2019/09/06 04:32:17;;;;;;;8.5;6.8;;;;;;;12.65;90.96582;966.3287;;;;
2019/09/06 04:34:42;;;;;;;9.7;7.2;;;;;;;12.7;90.37598;966.3961;;;;
2019/09/06 04:37:07;;;;;;;9.3;7.4;;;;;;;12.71;90.10938;966.3816;;;;
2019/09/06 04:39:32;;;;;;;10.8;7.2;;;;;;;12.55;90.1377;966.4526;;;;
2019/09/06 04:41:57;;;;;;;9.1;7.2;;;;;;;12.55;89.97363;966.4239;;;;
2019/09/06 04:44:22;;;;;;;9.4;7.2;;;;;;;12.59;90.17773;966.4549;;;;
2019/09/06 04:46:48;;;;;;;12.6;7.6;;;;;;;12.59;90.84863;966.4419;;;;
2019/09/06 04:49:13;;;;;;;11.7;7.8;;;;;;;12.53;91.77344;966.4503;;;;
2019/09/06 04:53:32;;;;;;;9.7;7.3;;;;;;;12.54;90.19141;966.4091;;;;
2019/09/06 04:55:58;;;;;;;9.9;7.3;;;;;;;12.64;90.50098;966.4153;;;;
2019/09/06 04:58:23;;;;;;;8.7;6.6;;;;;;;12.63;89.5625;966.4389;;;;
2019/09/06 05:00:48;;;;;;;9.6;6.9;;;;;;;12.89;89.59473;966.4332;;;;
2019/09/06 05:03:13;;;;;;;9.7;7.1;;;;;;;12.68;89.03027;966.4325;;;;
2019/09/06 05:05:38;;;;;;;10;6.9;;;;;;;12.63;89.37598;966.51;;;;
2019/09/06 05:08:03;;;;;;;9.9;6.9;;;;;;;12.53;90.06445;966.4606;;;;
2019/09/06 05:10:28;;;;;;;7.4;6.2;;;;;;;12.58;89.57715;966.4475;;;;
2019/09/06 05:12:53;;;;;;;9.3;6.4;;;;;;;12.54;89.54395;966.4548;;;;
2019/09/06 05:15:18;;;;;;;9.8;6.7;;;;;;;12.38;90.49316;966.4706;;;;
2019/09/06 05:17:43;;;;;;;9.6;6.1;;;;;;;12.35;90.07227;966.4487;;;;
2019/09/06 05:20:08;;;;;;;8.6;6.4;;;;;;;12.31;90.35352;966.4553;;;;
2019/09/06 05:22:33;;;;;;;8.4;6;;;;;;;12.41;90.18848;966.4918;;;;
2019/09/06 05:24:58;;;;;;;9.8;6.2;;;;;;;12.37;89.20898;966.4599;;;;
2019/09/06 05:27:24;;;;;;;8.9;5.8;;;;;;;12.48;89.58887;966.4314;;;;
2019/09/06 05:29:49;;;;;;;9.2;6.1;;;;;;;12.51;90.55469;966.446;;;;
2019/09/06 05:32:14;;;;;;;8;5.5;;;;;;;12.53;90.13184;966.4512;;;;
2019/09/06 05:34:39;;;;;;;9.7;6;;;;;;;12.54;90.33008;966.4352;;;;
2019/09/06 05:37:04;;;;;;;9.9;6.2;;;;;;;12.62;90.47461;966.4503;;;;
2019/09/06 05:39:29;;;;;;;8.6;5.7;;;;;;;12.63;89.23926;966.4398;;;;
2019/09/06 05:41:55;;;;;;;9.2;6.1;;;;;;;12.57;89.57324;966.4883;;;;
2019/09/06 05:44:20;;;;;;;9.3;5.6;;;;;;;12.64;89.38184;966.4685;;;;
2019/09/06 05:46:45;;;;;;;9.1;6.3;;;;;;;12.6;89.02539;966.4792;;;;
2019/09/06 05:49:10;;;;;;;9.1;6.1;;;;;;;12.55;88.91016;966.4745;;;;
2019/09/06 05:51:35;;;;;;;8;5.8;;;;;;;12.58;88.27051;966.5424;;;;
2019/09/06 05:54:00;;;;;;;8.7;5.8;;;;;;;12.51;87.56055;966.5408;;;;
2019/09/06 05:56:25;;;;;;;7.8;5.7;;;;;;;12.64;87.85352;966.502;;;;
2019/09/06 05:58:50;;;;;;;8.6;5.4;;;;;;;12.71;87.94824;966.5067;;;;
2019/09/06 06:01:16;;;;;;;9.5;5.6;;;;;;;12.7;87.09082;966.459;;;;
2019/09/06 06:03:41;;;;;;;8.5;5.7;;;;;;;12.7;88.18945;966.4444;;;;
2019/09/06 06:06:06;;;;;;;9.5;5.8;;;;;;;12.61;87.99609;966.4653;;;;
2019/09/06 06:08:32;;;;;;;9.6;5.7;;;;;;;12.68;87.43457;966.4292;;;;
2019/09/06 06:10:57;;;;;;;8.4;5.4;;;;;;;12.75;87.85156;966.4341;;;;
2019/09/06 06:13:22;;;;;;;9.6;5.6;;;;;;;12.72;86.78223;966.4197;;;;
2019/09/06 06:15:47;;;;;;;10.2;6;;;;;;;;;;;;;
2019/09/06 06:18:12;;;;;;;10.2;6;;;;;;;;;;;;;
2019/09/06 06:20:37;;;;;;;10.3;6;;;;;;;;;;;;;
2019/09/06 06:23:02;;;;;;;7.9;5.6;;;;;;;;;;;;;
2019/09/06 06:25:28;;;;;;;6.9;5.7;;;;;;;;;;;;;
2019/09/06 06:27:53;;;;;;;9.4;5.9;;;;;;;;;;;;;
2019/09/06 06:30:18;;;;;;;9.1;5.4;;;;;;;;;;;;;
2019/09/06 06:32:43;;;;;;;8.1;5.8;;;;;;;;;;;;;
2019/09/06 06:35:08;;;;;;;9.5;6;;;;;;;;;;;;;
2019/09/06 06:37:33;;;;;;;9.3;6;;;;;;;;;;;;;
2019/09/06 06:39:58;;;;;;;9.5;6.6;;;;;;;;;;;;;
2019/09/06 06:42:23;;;;;;;8.1;6.2;;;;;;;;;;;;;
2019/09/06 06:44:48;;;;;;;9.9;6.1;;;;;;;;;;;;;
2019/09/06 06:47:13;;;;;;;10.5;5.9;;;;;;;;;;;;;
2019/09/06 06:49:38;;;;;;;8.1;5.7;;;;;;;;;;;;;
2019/09/06 06:52:04;;;;;;;9.8;6.4;;;;;;;;;;;;;
2019/09/06 06:54:29;;;;;;;11.1;6.1;;;;;;;;;;;;;
2019/09/06 06:56:54;;;;;;;7.7;5.7;;;;;;;;;;;;;
2019/09/06 06:59:19;;;;;;;9.3;6;;;;;;;;;;;;;
2019/09/06 07:01:44;;;;;;;10.3;6.3;;;;;;;;;;;;;
2019/09/06 07:04:09;;;;;;;9.8;6.1;;;;;;;;;;;;;
2019/09/06 07:06:34;;;;;;;10.8;6.2;;;;;;;;;;;;;
2019/09/06 07:08:59;;;;;;;9.1;6.4;;;;;;;;;;;;;
2019/09/06 07:11:24;;;;;;;11.2;7.2;;;;;;;;;;;;;
2019/09/06 07:13:49;;;;;;;10.9;6.8;;;;;;;;;;;;;
2019/09/06 07:16:15;;;;;;;9.3;6.2;;;;;;;;;;;;;
2019/09/06 07:18:40;;;;;;;8.9;6.9;;;;;;;;;;;;;
2019/09/06 07:21:05;;;;;;;11.7;6.7;;;;;;;;;;;;;
2019/09/06 07:23:30;;;;;;;10.8;7.1;;;;;;;;;;;;;
2019/09/06 07:25:55;;;;;;;9.1;7;;;;;;;;;;;;;
2019/09/06 07:28:20;;;;;;;10.1;7.4;;;;;;;;;;;;;
2019/09/06 07:30:45;;;;;;;12.1;6.9;;;;;;;;;;;;;
2019/09/06 07:33:10;;;;;;;8.8;6.7;;;;;;;;;;;;;
2019/09/06 07:35:35;;;;;;;8.8;6.9;;;;;;;;;;;;;
2019/09/06 07:38:00;;;;;;;9.5;6.8;;;;;;;;;;;;;
2019/09/06 07:40:25;;;;;;;10.2;6.8;;;;;;;;;;;;;
2019/09/06 07:42:50;;;;;;;10.3;6.8;;;;;;;;;;;;;
2019/09/06 07:45:16;;;;;;;9.8;6.9;;;;;;;;;;;;;
2019/09/06 07:47:41;;;;;;;11.9;7.7;;;;;;;;;;;;;
2019/09/06 07:50:06;;;;;;;10.7;7.5;;;;;;;;;;;;;
2019/09/06 07:52:31;;;;;;;10.6;7.6;;;;;;;;;;;;;
2019/09/06 07:54:56;;;;;;;11;7.5;;;;;;;;;;;;;
2019/09/06 07:57:21;;;;;;;11.7;8.1;;;;;;;;;;;;;
2019/09/06 07:59:46;;;;;;;9.8;7;;;;;;;;;;;;;
2019/09/06 08:02:11;;;;;;;9.7;7.5;;;;;;;;;;;;;
2019/09/06 08:04:37;;;;;;;13;8.2;;;;;;;;;;;;;
2019/09/06 08:07:02;;;;;;;9.5;7.8;;;;;;;;;;;;;
2019/09/06 08:09:27;;;;;;;10.4;7.7;;;;;;;;;;;;;
2019/09/06 08:11:52;;;;;;;11.1;8.5;;;;;;;;;;;;;
2019/09/06 08:14:17;;;;;;;10.1;7.7;;;;;;;;;;;;;
2019/09/06 08:16:43;;;;;;;10.4;8.2;;;;;;;;;;;;;
2019/09/06 08:19:08;;;;;;;10;7.7;;;;;;;;;;;;;
2019/09/06 08:21:33;;;;;;;11.7;8.4;;;;;;;;;;;;;
2019/09/06 08:23:58;;;;;;;14.7;8.7;;;;;;;;;;;;;
2019/09/06 08:26:23;;;;;;;11.2;8.2;;;;;;;;;;;;;
2019/09/06 08:28:48;;;;;;;11;8.6;;;;;;;;;;;;;
2019/09/06 08:31:13;;;;;;;13.4;9;;;;;;;;;;;;;
2019/09/06 08:33:38;;;;;;;15.2;9.2;;;;;;;;;;;;;
2019/09/06 08:36:04;;;;;;;13.8;9;;;;;;;;;;;;;
2019/09/06 08:38:29;;;;;;;11.9;9.1;;;;;;;;;;;;;
2019/09/06 08:40:54;;;;;;;10.7;8.9;;;;;;;;;;;;;
2019/09/06 08:43:19;;;;;;;12.6;9.2;;;;;;;;;;;;;
2019/09/06 08:45:44;;;;;;;14.1;9.4;;;;;;;;;;;;;
2019/09/06 08:48:10;;;;;;;16.2;9.7;;;;;;;;;;;;;
2019/09/06 08:50:35;;;;;;;14.8;9.1;;;;;;;;;;;;;
2019/09/06 08:53:00;;;;;;;14;9.5;;;;;;;;;;;;;
2019/09/06 08:55:25;;;;;;;12.3;9.6;;;;;;;;;;;;;
2019/09/06 08:57:50;;;;;;;12.5;10.1;;;;;;;;;;;;;
2019/09/06 09:00:16;;;;;;;11.9;9.8;;;;;;;;;;;;;
2019/09/06 09:02:41;;;;;;;13;10.1;;;;;;;;;;;;;
2019/09/06 09:05:06;;;;;;;11.6;10.3;;;;;;;;;;;;;
2019/09/06 09:07:31;;;;;;;14.4;11;;;;;;;;;;;;;
2019/09/06 09:09:56;;;;;;;15.8;11.4;;;;;;;;;;;;;
2019/09/06 09:12:21;;;;;;;13.8;11.5;;;;;;;;;;;;;
2019/09/06 09:14:46;;;;;;;14.9;12.2;;;;;;;;;;;;;
2019/09/06 09:17:11;;;;;;;14;12.2;;;;;;;;;;;;;
2019/09/06 09:19:36;;;;;;;14;11.7;;;;;;;;;;;;;
2019/09/06 09:22:02;;;;;;;14.2;12.5;;;;;;;;;;;;;
2019/09/06 09:24:27;;;;;;;15.2;12.6;;;;;;;;;;;;;
2019/09/06 09:26:52;;;;;;;15;12.3;;;;;;;;;;;;;
2019/09/06 09:29:17;;;;;;;13.6;11.6;;;;;;;;;;;;;
2019/09/06 09:31:42;;;;;;;14.3;11.6;;;;;;;;;;;;;
2019/09/06 09:34:07;;;;;;;13.3;11.5;;;;;;;;;;;;;
2019/09/06 09:36:32;;;;;;;13.4;11.8;;;;;;;;;;;;;
2019/09/06 09:38:57;;;;;;;15.5;11.7;;;;;;;;;;;;;
2019/09/06 09:41:22;;;;;;;15;12.2;;;;;;;;;;;;;
2019/09/06 09:43:47;;;;;;;13;11.6;;;;;;;;;;;;;
2019/09/06 09:46:12;;;;;;;12.5;10.8;;;;;;;;;;;;;
2019/09/06 09:48:37;;;;;;;12.6;11.2;;;;;;;;;;;;;
2019/09/06 09:51:02;;;;;;;13.6;11;;;;;;;;;;;;;
2019/09/06 09:53:27;;;;;;;13.2;11.8;;;;;;;;;;;;;
2019/09/06 09:55:53;;;;;;;13.3;11.9;;;;;;;;;;;;;
2019/09/06 09:58:18;;;;;;;12.9;11.5;;;;;;;;;;;;;
2019/09/06 10:00:43;;;;;;;14.7;11.8;;;;;;;;;;;;;
2019/09/06 10:03:08;;;;;;;12.7;11.4;;;;;;;;;;;;;
2019/09/06 10:05:33;;;;;;;14;11.6;;;;;;;;;;;;;
2019/09/06 10:07:58;;;;;;;13.1;11.7;;;;;;;;;;;;;
2019/09/06 10:10:23;;;;;;;16.3;12.7;;;;;;;;;;;;;
2019/09/06 10:12:48;;;;;;;14.8;11.8;;;;;;;;;;;;;
2019/09/06 10:15:13;;;;;;;14.2;12.4;;;;;;;;;;;;;
2019/09/06 10:19:47;;;;;;;14.4;11.8;;;;;;;15.49;79.04883;966.0869;;;;
2019/09/06 10:22:12;;;;;;;14.2;11.1;;;;;;;15.53;78.28711;966.085;;;;
2019/09/06 10:24:37;;;;;;;13.1;11;;;;;;;15.57;77.03613;966.0919;;;;
2019/09/06 10:27:02;;;;;;;14.1;11.6;;;;;;;15.49;76.1377;966.0962;;;;
2019/09/06 10:29:27;;;;;;;13.3;10.7;;;;;;;15.47;76.90039;966.0992;;;;
2019/09/06 10:31:52;;;;;;;11.4;10.3;;;;;;;15.49;76.75391;966.063;;;;
2019/09/06 10:34:17;;;;;;;11.7;10.3;;;;;;;15.63;77.10547;966.0711;;;;
2019/09/06 10:36:42;;;;;;;12.3;9.4;;;;;;;15.73;73.88477;966.0485;;;;
2019/09/06 10:39:07;;;;;;;14.5;10;;;;;;;15.57;75.62695;966.0327;;;;
2019/09/06 10:41:32;;;;;;;12.5;10;;;;;;;15.59;77.19043;966.0446;;;;
2019/09/06 10:43:58;;;;;;;13.4;10;;;;;;;15.63;74.49707;965.9856;;;;
2019/09/06 10:46:23;;;;;;;11;9.6;;;;;;;15.63;75.87305;966.0267;;;;
2019/09/06 10:48:48;;;;;;;11.4;9.4;;;;;;;15.8;73.20996;966.0016;;;;
2019/09/06 10:51:13;;;;;;;11.7;9.4;;;;;;;15.76;73.06445;965.9691;;;;
2019/09/06 10:53:38;;;;;;;11.7;9.5;;;;;;;15.79;75.2002;965.998;;;;
2019/09/06 10:56:03;;;;;;;11.8;9.1;;;;;;;15.91;73.83398;966.0213;;;;
2019/09/06 10:58:28;;;;;;;13;9.4;;;;;;;15.98;73.05371;965.9498;;;;
2019/09/06 11:00:58;;;;;;;11.9;9.2;;;;;;;15.94;74.01465;965.9854;;;;
2019/09/06 11:03:24;;;;;;;10.3;9.2;;;;;;;15.97;73.33301;965.926;;;;
2019/09/06 11:05:49;;;;;;;13;9.4;;;;;;;15.95;73.36328;965.9067;;;;
2019/09/06 11:08:14;;;;;;;13.2;9.7;;;;;;;15.85;71.97266;965.9099;;;;
2019/09/06 11:10:39;;;;;;;12.2;10;;;;;;;16.02;73.46875;965.8267;;;;
2019/09/06 11:13:04;;;;;;;12.3;9.6;;;;;;;16.04;74.1123;965.8491;;;;
2019/09/06 11:15:29;;;;;;;11.8;9;;;;;;;16.26;70.54785;965.793;;;;
2019/09/06 11:17:54;;;;;;;11.6;8.7;;;;;;;16.32;73.72852;965.7787;;;;
2019/09/06 11:20:19;;;;;;;11.3;8.6;;;;;;;16.41;72.19336;965.7117;;;;
2019/09/06 11:22:44;;;;;;;11;8.6;;;;;;;16.44;71.09961;965.7112;;;;
2019/09/06 11:25:09;;;;;;;11.4;8.5;;;;;;;16.4;70.83691;965.6995;;;;
2019/09/06 11:27:35;;;;;;;10.6;8;;;;;;;16.47;70.23047;965.7385;;;;
2019/09/06 11:30:00;;;;;;;11.3;8.5;;;;;;;16.39;70.1123;965.7519;;;;
2019/09/06 11:32:25;;;;;;;12.1;8.3;;;;;;;16.47;70.4873;965.7508;;;;
2019/09/06 11:34:50;;;;;;;12.4;8.2;;;;;;;16.54;70.5459;965.7408;;;;
2019/09/06 11:37:15;;;;;;;11.4;8;;;;;;;16.36;70.36328;965.7229;;;;
2019/09/06 11:39:40;;;;;;;12.9;8.2;;;;;;;16.27;71.25879;965.7322;;;;
2019/09/06 11:42:05;;;;;;;9.4;7.7;;;;;;;16.24;68.81738;965.6805;;;;
2019/09/06 11:44:30;;;;;;;11.7;7.7;;;;;;;16.3;70.69141;965.6814;;;;
2019/09/06 11:46:55;;;;;;;10.6;7.5;;;;;;;16.3;68.23145;965.6188;;;;
2019/09/06 11:49:20;;;;;;;9.2;6.7;;;;;;;16.33;68.21289;965.6375;;;;
2019/09/06 11:51:46;;;;;;;9.1;6.2;;;;;;;16.34;66.86328;965.6473;;;;
2019/09/06 11:54:11;;;;;;;9.7;6.3;;;;;;;16.32;66.90625;965.6389;;;;
2019/09/06 11:56:36;;;;;;;10.5;6.4;;;;;;;16.32;68.06055;965.6018;;;;
2019/09/06 11:59:01;;;;;;;8.9;6.4;;;;;;;16.32;66.59082;965.5656;;;;
2019/09/06 12:01:26;;;;;;;8.3;5.7;;;;;;;16.39;67.91992;965.5972;;;;
2019/09/06 12:03:51;;;;;;;9.6;6.2;;;;;;;16.37;66.64551;965.5553;;;;
2019/09/06 12:06:24;;;;;;;8.8;6.6;;;;;;;16.33;68.37695;965.5039;;;;
2019/09/06 12:08:49;;;;;;;10.9;7.7;;;;;;;16.49;66.79199;965.533;;;;
2019/09/06 12:11:14;;;;;;;10.3;7.5;;;;;;;16.5;67.01465;965.5345;;;;
2019/09/06 12:13:39;;;;;;;12.4;7.5;;;;;;;16.41;68.05078;965.4905;;;;
2019/09/06 12:16:04;;;;;;;9.6;7;;;;;;;16.43;67.90234;965.4841;;;;
2019/09/06 12:18:29;;;;;;;10.1;7.2;;;;;;;16.54;68.22363;965.456;;;;
2019/09/06 12:20:54;;;;;;;9.4;6.7;;;;;;;16.43;67.4707;965.3986;;;;
2019/09/06 12:23:19;;;;;;;9.3;6.6;;;;;;;16.36;67.28418;965.379;;;;
2019/09/06 12:25:45;;;;;;;8.6;6.7;;;;;;;16.26;69.2168;965.3826;;;;
2019/09/06 12:28:10;;;;;;;9.4;6.9;;;;;;;16.2;69.15039;965.2786;;;;
2019/09/06 12:30:35;;;;;;;10;7.2;;;;;;;16.24;69.27246;965.2746;;;;
2019/09/06 12:33:00;;;;;;;10;7.4;;;;;;;16.35;70.2334;965.3157;;;;
2019/09/06 12:35:25;;;;;;;10.4;7.2;;;;;;;16.36;68.47461;965.2629;;;;
2019/09/06 12:37:50;;;;;;;9.8;7.2;;;;;;;16.39;68.80469;965.1727;;;;
2019/09/06 12:40:15;;;;;;;10.4;7.4;;;;;;;16.34;69.10156;965.1957;;;;
2019/09/06 12:42:40;;;;;;;10.8;7.8;;;;;;;16.3;69.0127;965.1903;;;;
2019/09/06 12:45:05;;;;;;;10.1;7.9;;;;;;;16.38;69.31836;965.1168;;;;
2019/09/06 12:47:30;;;;;;;11;7.7;;;;;;;16.43;68.5332;965.057;;;;
2019/09/06 12:49:55;;;;;;;10.1;7.4;;;;;;;16.47;68.57422;964.9675;;;;
2019/09/06 12:52:21;;;;;;;9.9;8.2;;;;;;;16.49;68.39063;964.9216;;;;
2019/09/06 12:54:46;;;;;;;9.6;7.5;;;;;;;16.63;68.36426;964.9451;;;;
2019/09/06 12:57:11;;;;;;;8.8;7.2;;;;;;;16.62;68.63184;964.9344;;;;
2019/09/06 12:59:36;;;;;;;9.5;7.2;;;;;;;16.73;67.92578;964.8929;;;;
2019/09/06 13:02:01;;;;;;;8.8;6.7;;;;;;;16.77;66.99707;964.8686;;;;
2019/09/06 13:04:26;;;;;;;10.5;7.1;;;;;;;16.7;67.33789;964.8434;;;;
2019/09/06 13:06:51;;;;;;;9.9;7;;;;;;;16.71;68.12207;964.8475;;;;
2019/09/06 13:09:16;;;;;;;9.7;7;;;;;;;16.74;68.14941;964.7916;;;;
2019/09/06 13:11:41;;;;;;;12.1;7.3;;;;;;;16.74;68.94336;964.8303;;;;
2019/09/06 13:14:06;;;;;;;9.4;7.2;;;;;;;16.84;68.6084;964.7947;;;;
2019/09/06 13:16:31;;;;;;;9.2;7.3;;;;;;;17.05;68.33691;964.741;;;;
2019/09/06 13:18:57;;;;;;;10.6;7.5;;;;;;;16.94;67.27051;964.6897;;;;
2019/09/06 13:21:22;;;;;;;10.9;7.6;;;;;;;16.99;66.99707;964.68;;;;
2019/09/06 13:23:47;;;;;;;9.5;6.4;;;;;;;17;68.00098;964.7352;;;;
2019/09/06 13:26:12;;;;;;;10.6;6.7;;;;;;;16.86;69.58105;964.6763;;;;
2019/09/06 13:28:37;;;;;;;8.9;6.9;;;;;;;16.97;68.55859;964.6594;;;;
2019/09/06 13:31:03;;;;;;;9.8;7.2;;;;;;;17.06;69.44824;964.639;;;;
2019/09/06 13:33:28;;;;;;;9.4;6.5;;;;;;;16.76;66.94922;964.6662;;;;
2019/09/06 13:35:54;;;;;;;10.1;5.7;;;;;;;16.78;67.08203;964.6738;;;;
2019/09/06 13:38:19;;;;;;;7.8;5.3;;;;;;;16.65;65.77734;964.6498;;;;
2019/09/06 13:40:44;;;;;;;10;5.1;;;;;;;16.54;64.54785;964.6067;;;;
2019/09/06 13:43:09;;;;;;;10.5;5.6;;;;;;;16.61;66.49609;964.574;;;;
2019/09/06 13:45:35;;;;;;;7.8;5.6;;;;;;;16.74;65.98828;964.52;;;;
2019/09/06 13:48:00;;;;;;;8.6;5.3;;;;;;;16.68;64.93066;964.57;;;;
2019/09/06 13:50:25;;;;;;;9;5.3;;;;;;;16.64;66.65137;964.5058;;;;
2019/09/06 13:52:50;;;;;;;9.9;5.4;;;;;;;16.6;64.50879;964.596;;;;
2019/09/06 13:55:15;;;;;;;8.9;5.2;;;;;;;16.62;64.8623;964.5649;;;;
2019/09/06 13:57:40;;;;;;;8.9;5.1;;;;;;;16.43;66.39746;964.5446;;;;
2019/09/06 14:00:05;;;;;;;7.5;5.2;;;;;;;16.42;65.4043;964.5352;;;;
2019/09/06 14:02:30;;;;;;;10.6;5.3;;;;;;;16.44;66.79492;964.4786;;;;
2019/09/06 14:04:55;;;;;;;8.5;5.4;;;;;;;16.46;68.04785;964.4673;;;;
2019/09/06 14:07:21;;;;;;;12.9;5.3;;;;;;;16.45;65.78125;964.423;;;;
2019/09/06 14:09:46;;;;;;;9.5;5.5;;;;;;;16.31;67.10254;964.3934;;;;
2019/09/06 14:12:11;;;;;;;9.5;5.2;;;;;;;16.32;66.85938;964.367;;;;
2019/09/06 14:14:37;;;;;;;8.8;5.7;;;;;;;16.3;69.59668;964.3964;;;;
2019/09/06 14:17:02;;;;;;;9.3;5.5;;;;;;;16.27;69.53418;964.3794;;;;
2019/09/06 14:19:27;;;;;;;9.1;5.5;;;;;;;16.22;68.27734;964.3503;;;;
2019/09/06 14:21:52;;;;;;;10.9;5.4;;;;;;;16.23;67.40527;964.3748;;;;
2019/09/06 14:24:17;;;;;;;7.4;4.7;;;;;;;16.22;65.42188;964.2911;;;;
2019/09/06 14:26:42;;;;;;;8.3;4.8;;;;;;;16.26;66.09277;964.315;;;;
2019/09/06 14:29:07;;;;;;;8;4.6;;;;;;;16.32;65.73926;964.3539;;;;
2019/09/06 14:31:32;;;;;;;9;4.7;;;;;;;16.35;65.13672;964.3285;;;;
2019/09/06 14:33:57;;;;;;;8.9;4.9;;;;;;;16.23;66.41406;964.3025;;;;
2019/09/06 14:36:22;;;;;;;9.8;5.2;;;;;;;16.34;65.1709;964.3369;;;;
2019/09/06 14:38:47;;;;;;;8.7;4.9;;;;;;;16.29;65.31543;964.2706;;;;
2019/09/06 14:41:13;;;;;;;7.4;4.6;;;;;;;16.26;64.77539;964.2787;;;;
2019/09/06 14:43:38;;;;;;;8.4;4.7;;;;;;;16.23;65.55078;964.2137;;;;
2019/09/06 14:46:03;;;;;;;9.5;4.5;;;;;;;16.28;65.0332;964.2156;;;;
2019/09/06 14:48:28;;;;;;;8.5;4.5;;;;;;;16.3;68.52441;964.2007;;;;
2019/09/06 14:50:53;;;;;;;9.2;4.8;;;;;;;16.31;68.00098;964.1796;;;;
2019/09/06 14:53:19;;;;;;;11.7;5.3;;;;;;;16.25;64.21289;964.1316;;;;
2019/09/06 14:55:44;;;;;;;9.1;5.1;;;;;;;16.23;64.19824;964.1586;;;;
2019/09/06 14:58:09;;;;;;;7.1;4.7;;;;;;;16.34;64.83301;964.0942;;;;
2019/09/06 15:00:38;;;;;;;9.4;4.7;;;;;;;16.29;64.81445;964.1292;;;;
2019/09/06 15:02:59;;;;;;;7.7;4.9;;;;;;;16.24;66.59082;964.1736;;;;
2019/09/06 15:05:24;;;;;;;8.4;4.6;;;;;;;16.22;65.79297;964.1348;;;;
2019/09/06 15:07:49;;;;;;;7.9;4.8;;;;;;;16.23;65.50293;964.0442;;;;
2019/09/06 15:10:14;;;;;;;9.1;5.2;;;;;;;16.18;65.77637;964.1139;;;;
2019/09/06 15:12:39;;;;;;;10.1;5.1;;;;;;;16.22;65.10645;964.1142;;;;
2019/09/06 15:15:05;;;;;;;10.2;4.9;;;;;;;16.16;66.6709;964.1058;;;;
2019/09/06 15:17:35;;;;;;;7.4;4.9;;;;;;;16.17;66.22949;964.1575;;;;
2019/09/06 15:19:55;;;;;;;9.9;5;;;;;;;16.11;67.28125;964.1893;;;;
2019/09/06 15:22:20;;;;;;;9.3;5;;;;;;;16.07;66.86914;964.139;;;;
2019/09/06 15:24:45;;;;;;;9.5;5;;;;;;;16.08;68.74512;964.1752;;;;
2019/09/06 15:27:10;;;;;;;8.5;5.3;;;;;;;16.06;67.83398;964.1794;;;;
2019/09/06 15:29:35;;;;;;;10.7;4.9;;;;;;;16.15;67.03027;964.1795;;;;
2019/09/06 15:32:01;;;;;;;7.7;5.2;;;;;;;16.11;68.6582;964.2131;;;;
2019/09/06 15:34:26;;;;;;;7.7;4.7;;;;;;;16.19;67.52832;964.1955;;;;
2019/09/06 15:36:51;;;;;;;8.6;4.8;;;;;;;16.23;67.23047;964.1462;;;;
2019/09/06 15:39:16;;;;;;;8.6;5;;;;;;;16.19;69.13574;964.1642;;;;
2019/09/06 15:41:41;;;;;;;9.1;5;;;;;;;16.15;67.42676;964.1647;;;;
2019/09/06 15:44:06;;;;;;;7.3;5;;;;;;;16.16;67.68555;964.1724;;;;
2019/09/06 15:46:31;;;;;;;6.9;4.7;;;;;;;16.13;66.67871;964.145;;;;
2019/09/06 15:48:56;;;;;;;7.6;4.7;;;;;;;16.1;66.55664;964.1342;;;;
2019/09/06 15:51:22;;;;;;;8.5;4.8;;;;;;;15.96;67.51563;964.1103;;;;